Woodland, WA (98674)

8:28 AM PDT on April 28, 2015 (GMT -0700)
Woodland | | Change Station
CLOSE
Current Station
Personal Weather Station
Location: Woodland, WA
Elevation: 25 ft
Nearby Weather Stations

Elev 25 ft 45.93 °N, 122.71 °W | Updated 0 second ago

Overcast
Overcast
58.8 °F
Feels Like 58.8 °F
N
0.9
Wind Variable Wind from SSW
Gusts 2.5 mph

Today
High -- | Low -- °F
--% Chance of Precip.
Yesterday
High -- | Low -- °F
Precip. -- in
6:02 AM 8:14 PM
Waxing Gibbous, 74% visible
Pressure 30.08 in
Visibility 10.0 miles
Clouds Scattered Clouds 2200 ft
Overcast 2700 ft
Dew Point 54 °F
Humidity 83%
Rainfall 0.00 in
Snow Depth Not available.
UV 1.0 out of 12
Pollen 9.80 out of 12
Air Quality Not available.
Flu Activity Regional
METAR KSPB 281453Z AUTO 03003KT 10SM SCT022 OVC027 14/11 A3008 RMK AO2 SLP184 T01440106 53014

More Conditions Fewer Conditions

Pressure 30.08 in
Visibility 10.0 miles
Clouds Scattered Clouds 2200 ft
Overcast 2700 ft
Dew Point 54 °F
Humidity 83%
Rainfall 0.00 in
Snow Depth Not available.
UV 1.0 out of 12
Pollen 9.80 out of 12
Air Quality Not available.
Flu Activity Regional
METAR KSPB 281453Z AUTO 03003KT 10SM SCT022 OVC027 14/11 A3008 RMK AO2 SLP184 T01440106 53014

More Conditions Fewer Conditions

10-Day Weather Forecast

Almanac

Astronomy

Apr. 28, 2015 Rise Set
Actual Time
Civil Twilight
Nautical Twilight
Astronomical Twilight
Moon
Length of Visible Light
Length of Day
Tomorrow will be .
, % of the Moon is Illuminated

Today's Extremes

State Highs State Lows

Community

WunderPhotos

Upload Photos

1,817,661 photos uploaded!

WunderBlogs® & News

Nearby

Air Quality

  Air Quality AQ Index Pollutant
Not available.

Snow Depth

Station Depth Elevation

Earthquake Activity

City Distance Mag. Time & Date
Minimum magnitude displayed is 2.5.

Coastal Water Temperatures

Place Temperature

Stations

Nearby Weather Stations

Station Location Temp. Windchill Dew Point Humidity Wind Precip. Elev Updated Type